sensor_id;sensor_type;location;lat;lon;timestamp;pressure;altitude;pressure_sealevel;temperature;humidity
64460;BME280;50828;53.756;21.140;2023-04-30T00:00:12;99619.77;;;12.59;55.72
64460;BME280;50828;53.756;21.140;2023-04-30T00:05:20;99632.56;;;12.51;55.99
64460;BME280;50828;53.756;21.140;2023-04-30T00:10:28;99642.57;;;12.40;56.56
64460;BME280;50828;53.756;21.140;2023-04-30T00:15:35;99656.81;;;12.24;55.87
64460;BME280;50828;53.756;21.140;2023-04-30T00:20:43;99663.38;;;12.07;55.65
64460;BME280;50828;53.756;21.140;2023-04-30T00:25:50;99668.68;;;11.86;55.56
64460;BME280;50828;53.756;21.140;2023-04-30T00:30:58;99670.55;;;11.67;55.63
64460;BME280;50828;53.756;21.140;2023-04-30T00:36:06;99673.06;;;11.45;55.47
64460;BME280;50828;53.756;21.140;2023-04-30T00:41:14;99679.02;;;11.25;55.68
64460;BME280;50828;53.756;21.140;2023-04-30T00:46:22;99677.91;;;11.05;56.41
64460;BME280;50828;53.756;21.140;2023-04-30T00:51:30;99674.55;;;10.83;56.67
64460;BME280;50828;53.756;21.140;2023-04-30T00:56:38;99674.69;;;10.62;56.78
64460;BME280;50828;53.756;21.140;2023-04-30T01:01:45;99678.03;;;10.43;57.12
64460;BME280;50828;53.756;21.140;2023-04-30T01:06:53;99678.94;;;10.26;57.66
64460;BME280;50828;53.756;21.140;2023-04-30T01:12:12;99678.66;;;10.13;58.16
64460;BME280;50828;53.756;21.140;2023-04-30T01:17:27;99684.00;;;10.00;58.44
64460;BME280;50828;53.756;21.140;2023-04-30T01:22:49;99689.51;;;9.87;59.10
64460;BME280;50828;53.756;21.140;2023-04-30T01:28:05;99693.11;;;9.76;59.50
64460;BME280;50828;53.756;21.140;2023-04-30T01:33:14;99695.73;;;9.65;59.57
64460;BME280;50828;53.756;21.140;2023-04-30T01:38:36;99694.77;;;9.54;60.02
64460;BME280;50828;53.756;21.140;2023-04-30T01:43:57;99691.17;;;9.44;60.43
64460;BME280;50828;53.756;21.140;2023-04-30T01:49:18;99687.11;;;9.36;60.55
64460;BME280;50828;53.756;21.140;2023-04-30T01:54:34;99691.48;;;9.28;60.84
64460;BME280;50828;53.756;21.140;2023-04-30T01:59:47;99694.27;;;9.20;60.86
64460;BME280;50828;53.756;21.140;2023-04-30T02:04:56;99698.80;;;9.12;61.02
64460;BME280;50828;53.756;21.140;2023-04-30T02:10:05;99694.34;;;9.05;61.49
64460;BME280;50828;53.756;21.140;2023-04-30T02:15:14;99700.21;;;8.99;61.51
64460;BME280;50828;53.756;21.140;2023-04-30T02:20:25;99701.89;;;8.92;61.72
64460;BME280;50828;53.756;21.140;2023-04-30T02:25:34;99703.59;;;8.85;61.99
64460;BME280;50828;53.756;21.140;2023-04-30T02:30:43;99702.29;;;8.78;62.15
64460;BME280;50828;53.756;21.140;2023-04-30T02:35:53;99699.50;;;8.73;62.56
64460;BME280;50828;53.756;21.140;2023-04-30T02:41:03;99703.24;;;8.67;62.85
64460;BME280;50828;53.756;21.140;2023-04-30T02:46:10;99702.39;;;8.61;62.72
64460;BME280;50828;53.756;21.140;2023-04-30T02:51:18;99705.04;;;8.56;63.21
64460;BME280;50828;53.756;21.140;2023-04-30T02:56:26;99712.42;;;8.52;62.99
64460;BME280;50828;53.756;21.140;2023-04-30T03:01:34;99718.58;;;8.46;63.22
64460;BME280;50828;53.756;21.140;2023-04-30T03:06:43;99720.13;;;8.42;63.56
64460;BME280;50828;53.756;21.140;2023-04-30T03:11:52;99725.74;;;8.36;63.63
64460;BME280;50828;53.756;21.140;2023-04-30T03:17:01;99730.35;;;8.31;63.38
64460;BME280;50828;53.756;21.140;2023-04-30T03:22:09;99731.98;;;8.24;63.43
64460;BME280;50828;53.756;21.140;2023-04-30T03:27:18;99735.88;;;8.19;63.29
64460;BME280;50828;53.756;21.140;2023-04-30T03:32:26;99745.75;;;8.13;63.23
64460;BME280;50828;53.756;21.140;2023-04-30T03:37:35;99752.77;;;8.07;63.45
64460;BME280;50828;53.756;21.140;2023-04-30T03:42:43;99762.20;;;7.99;63.16
64460;BME280;50828;53.756;21.140;2023-04-30T03:47:54;99771.97;;;7.90;63.05
64460;BME280;50828;53.756;21.140;2023-04-30T03:53:01;99779.64;;;7.81;62.99
64460;BME280;50828;53.756;21.140;2023-04-30T03:58:09;99782.94;;;7.72;63.00
64460;BME280;50828;53.756;21.140;2023-04-30T04:03:18;99790.45;;;7.62;63.40
64460;BME280;50828;53.756;21.140;2023-04-30T04:08:28;99798.60;;;7.54;63.55
64460;BME280;50828;53.756;21.140;2023-04-30T04:13:37;99801.41;;;7.48;63.28
64460;BME280;50828;53.756;21.140;2023-04-30T04:18:46;99806.71;;;7.47;63.64
64460;BME280;50828;53.756;21.140;2023-04-30T04:23:54;99813.55;;;7.47;63.65
64460;BME280;50828;53.756;21.140;2023-04-30T04:29:02;99821.08;;;7.47;63.73
64460;BME280;50828;53.756;21.140;2023-04-30T04:34:14;99823.78;;;7.50;63.56
64460;BME280;50828;53.756;21.140;2023-04-30T04:39:23;99828.20;;;7.60;63.71
64460;BME280;50828;53.756;21.140;2023-04-30T04:44:31;99838.54;;;7.71;63.61
64460;BME280;50828;53.756;21.140;2023-04-30T04:49:38;99847.06;;;7.83;63.64
64460;BME280;50828;53.756;21.140;2023-04-30T04:54:46;99854.33;;;7.97;63.59
64460;BME280;50828;53.756;21.140;2023-04-30T04:59:54;99859.56;;;8.13;63.52
64460;BME280;50828;53.756;21.140;2023-04-30T05:05:02;99867.30;;;8.28;62.98
64460;BME280;50828;53.756;21.140;2023-04-30T05:10:11;99875.37;;;8.44;62.66
64460;BME280;50828;53.756;21.140;2023-04-30T05:15:20;99887.63;;;8.60;62.22
64460;BME280;50828;53.756;21.140;2023-04-30T05:20:29;99891.39;;;8.77;62.23
64460;BME280;50828;53.756;21.140;2023-04-30T05:25:38;99897.87;;;8.97;62.11
64460;BME280;50828;53.756;21.140;2023-04-30T05:30:46;99907.93;;;9.19;61.68
64460;BME280;50828;53.756;21.140;2023-04-30T05:35:54;99911.13;;;9.42;61.19
64460;BME280;50828;53.756;21.140;2023-04-30T05:41:03;99918.63;;;9.66;61.00
64460;BME280;50828;53.756;21.140;2023-04-30T05:46:11;99924.48;;;9.91;60.46
64460;BME280;50828;53.756;21.140;2023-04-30T05:51:20;99930.83;;;10.12;59.72
64460;BME280;50828;53.756;21.140;2023-04-30T05:56:29;99930.67;;;10.29;59.09
64460;BME280;50828;53.756;21.140;2023-04-30T06:01:37;99934.35;;;10.43;58.67
64460;BME280;50828;53.756;21.140;2023-04-30T06:06:46;99939.29;;;10.55;58.43
64460;BME280;50828;53.756;21.140;2023-04-30T06:11:54;99949.27;;;10.69;57.79
64460;BME280;50828;53.756;21.140;2023-04-30T06:17:03;99956.70;;;10.84;57.95
64460;BME280;50828;53.756;21.140;2023-04-30T06:22:14;99963.10;;;11.03;57.87
64460;BME280;50828;53.756;21.140;2023-04-30T06:27:23;99965.11;;;11.25;57.06
64460;BME280;50828;53.756;21.140;2023-04-30T06:32:32;99970.48;;;11.47;56.57
64460;BME280;50828;53.756;21.140;2023-04-30T06:37:41;99969.30;;;11.64;56.35
64460;BME280;50828;53.756;21.140;2023-04-30T06:42:49;99968.31;;;11.78;55.54
64460;BME280;50828;53.756;21.140;2023-04-30T06:47:56;99967.14;;;11.88;54.92
64460;BME280;50828;53.756;21.140;2023-04-30T06:53:05;99970.15;;;11.96;54.26
64460;BME280;50828;53.756;21.140;2023-04-30T06:58:14;99977.21;;;12.03;53.85
64460;BME280;50828;53.756;21.140;2023-04-30T07:03:22;99981.46;;;12.07;53.17
64460;BME280;50828;53.756;21.140;2023-04-30T07:08:30;99983.39;;;12.07;53.16
64460;BME280;50828;53.756;21.140;2023-04-30T07:13:39;99986.33;;;12.04;52.35
64460;BME280;50828;53.756;21.140;2023-04-30T07:18:48;99985.54;;;11.99;52.16
64460;BME280;50828;53.756;21.140;2023-04-30T07:23:58;99992.69;;;11.97;52.08
64460;BME280;50828;53.756;21.140;2023-04-30T07:29:06;99993.04;;;11.97;51.64
64460;BME280;50828;53.756;21.140;2023-04-30T07:34:15;100001.70;;;11.97;51.31
64460;BME280;50828;53.756;21.140;2023-04-30T07:39:24;100006.43;;;12.01;50.43
64460;BME280;50828;53.756;21.140;2023-04-30T07:44:31;100011.89;;;12.09;50.56
64460;BME280;50828;53.756;21.140;2023-04-30T07:49:39;100013.20;;;12.18;49.76
64460;BME280;50828;53.756;21.140;2023-04-30T07:54:47;100019.22;;;12.29;48.97
64460;BME280;50828;53.756;21.140;2023-04-30T07:59:55;100023.05;;;12.34;47.34
64460;BME280;50828;53.756;21.140;2023-04-30T08:05:05;100025.59;;;12.32;48.02
64460;BME280;50828;53.756;21.140;2023-04-30T08:10:14;100034.55;;;12.33;47.71
64460;BME280;50828;53.756;21.140;2023-04-30T08:15:21;100035.02;;;12.31;47.08
64460;BME280;50828;53.756;21.140;2023-04-30T08:20:29;100035.70;;;12.31;47.45
64460;BME280;50828;53.756;21.140;2023-04-30T08:25:39;100039.07;;;12.31;47.48
64460;BME280;50828;53.756;21.140;2023-04-30T08:30:47;100043.17;;;12.30;47.42
64460;BME280;50828;53.756;21.140;2023-04-30T08:35:55;100047.73;;;12.26;47.17
64460;BME280;50828;53.756;21.140;2023-04-30T08:41:07;100062.89;;;12.24;46.68
64460;BME280;50828;53.756;21.140;2023-04-30T08:46:16;100065.11;;;12.22;47.13
64460;BME280;50828;53.756;21.140;2023-04-30T08:51:25;100068.98;;;12.22;47.51
64460;BME280;50828;53.756;21.140;2023-04-30T08:56:34;100074.83;;;12.21;46.66
64460;BME280;50828;53.756;21.140;2023-04-30T09:01:42;100078.12;;;12.19;46.50
64460;BME280;50828;53.756;21.140;2023-04-30T09:06:53;100084.38;;;12.17;46.96
64460;BME280;50828;53.756;21.140;2023-04-30T09:12:14;100084.47;;;12.19;47.23
64460;BME280;50828;53.756;21.140;2023-04-30T09:17:26;100085.32;;;12.20;46.61
64460;BME280;50828;53.756;21.140;2023-04-30T09:22:35;100090.14;;;12.19;46.21
64460;BME280;50828;53.756;21.140;2023-04-30T09:27:44;100087.37;;;12.14;46.05
64460;BME280;50828;53.756;21.140;2023-04-30T09:32:59;100089.75;;;12.12;46.32
64460;BME280;50828;53.756;21.140;2023-04-30T09:38:23;100092.72;;;12.09;46.31
64460;BME280;50828;53.756;21.140;2023-04-30T09:43:32;100094.18;;;12.12;46.54
64460;BME280;50828;53.756;21.140;2023-04-30T09:48:45;100105.52;;;12.19;46.60
64460;BME280;50828;53.756;21.140;2023-04-30T09:53:55;100103.83;;;12.24;45.84
64460;BME280;50828;53.756;21.140;2023-04-30T09:59:05;100107.15;;;12.28;45.47
64460;BME280;50828;53.756;21.140;2023-04-30T10:04:16;100093.66;;;12.23;45.76
64460;BME280;50828;53.756;21.140;2023-04-30T10:09:26;100108.39;;;12.33;45.51
64460;BME280;50828;53.756;21.140;2023-04-30T10:14:34;100116.21;;;12.35;45.12
64460;BME280;50828;53.756;21.140;2023-04-30T10:19:48;100115.06;;;12.37;44.69
64460;BME280;50828;53.756;21.140;2023-04-30T10:24:58;100112.84;;;12.39;44.61
64460;BME280;50828;53.756;21.140;2023-04-30T10:30:08;100109.21;;;12.41;44.37
64460;BME280;50828;53.756;21.140;2023-04-30T10:35:21;100115.20;;;12.45;44.57
64460;BME280;50828;53.756;21.140;2023-04-30T10:40:36;100119.66;;;12.52;44.80
64460;BME280;50828;53.756;21.140;2023-04-30T10:45:45;100119.85;;;12.59;44.77
64460;BME280;50828;53.756;21.140;2023-04-30T10:50:57;100118.16;;;12.64;44.49
64460;BME280;50828;53.756;21.140;2023-04-30T10:56:06;100113.64;;;12.66;44.03
64460;BME280;50828;53.756;21.140;2023-04-30T11:01:16;100109.80;;;12.69;44.11
64460;BME280;50828;53.756;21.140;2023-04-30T11:06:24;100112.29;;;12.73;44.03
64460;BME280;50828;53.756;21.140;2023-04-30T11:11:34;100119.11;;;12.77;43.42
64460;BME280;50828;53.756;21.140;2023-04-30T11:16:43;100125.14;;;12.77;41.66
64460;BME280;50828;53.756;21.140;2023-04-30T11:22:15;100126.73;;;12.77;41.44
64460;BME280;50828;53.756;21.140;2023-04-30T11:27:26;100128.95;;;12.79;41.62
64460;BME280;50828;53.756;21.140;2023-04-30T11:32:38;100126.32;;;12.82;41.82
64460;BME280;50828;53.756;21.140;2023-04-30T11:37:47;100128.86;;;12.88;41.81
64460;BME280;50828;53.756;21.140;2023-04-30T11:42:56;100131.82;;;12.89;40.68
64460;BME280;50828;53.756;21.140;2023-04-30T11:48:04;100135.08;;;12.91;41.18
64460;BME280;50828;53.756;21.140;2023-04-30T11:53:13;100138.23;;;12.91;41.25
64460;BME280;50828;53.756;21.140;2023-04-30T11:58:21;100145.02;;;12.90;40.71
64460;BME280;50828;53.756;21.140;2023-04-30T12:03:30;100144.92;;;12.84;40.55
64460;BME280;50828;53.756;21.140;2023-04-30T12:08:39;100146.36;;;12.84;40.88
64460;BME280;50828;53.756;21.140;2023-04-30T12:13:53;100148.00;;;12.87;41.76
64460;BME280;50828;53.756;21.140;2023-04-30T12:19:01;100143.80;;;12.89;41.19
64460;BME280;50828;53.756;21.140;2023-04-30T12:24:11;100145.33;;;12.91;41.09
64460;BME280;50828;53.756;21.140;2023-04-30T12:29:20;100146.66;;;12.92;41.12
64460;BME280;50828;53.756;21.140;2023-04-30T12:34:30;100140.39;;;12.94;41.19
64460;BME280;50828;53.756;21.140;2023-04-30T12:39:39;100147.94;;;12.95;40.80
64460;BME280;50828;53.756;21.140;2023-04-30T12:44:47;100148.11;;;12.95;40.90
64460;BME280;50828;53.756;21.140;2023-04-30T12:49:57;100146.77;;;12.98;40.73
64460;BME280;50828;53.756;21.140;2023-04-30T12:55:18;100148.46;;;13.02;40.91
64460;BME280;50828;53.756;21.140;2023-04-30T13:00:26;100151.94;;;13.07;40.81
64460;BME280;50828;53.756;21.140;2023-04-30T13:05:35;100158.77;;;13.09;40.29
64460;BME280;50828;53.756;21.140;2023-04-30T13:10:44;100166.33;;;13.10;40.21
64460;BME280;50828;53.756;21.140;2023-04-30T13:15:53;100167.13;;;13.11;39.78
64460;BME280;50828;53.756;21.140;2023-04-30T13:21:02;100168.21;;;13.14;39.45
64460;BME280;50828;53.756;21.140;2023-04-30T13:26:11;100171.86;;;13.15;38.88
64460;BME280;50828;53.756;21.140;2023-04-30T13:31:19;100177.98;;;13.20;39.23
64460;BME280;50828;53.756;21.140;2023-04-30T13:36:28;100172.75;;;13.26;39.23
64460;BME280;50828;53.756;21.140;2023-04-30T13:41:35;100178.93;;;13.34;38.86
64460;BME280;50828;53.756;21.140;2023-04-30T13:46:43;100176.84;;;13.36;38.69
64460;BME280;50828;53.756;21.140;2023-04-30T13:51:51;100172.91;;;13.37;38.20
64460;BME280;50828;53.756;21.140;2023-04-30T13:56:58;100168.27;;;13.35;37.97
64460;BME280;50828;53.756;21.140;2023-04-30T14:02:06;100173.61;;;13.34;37.64
64460;BME280;50828;53.756;21.140;2023-04-30T14:07:14;100166.38;;;13.34;37.67
64460;BME280;50828;53.756;21.140;2023-04-30T14:12:22;100169.94;;;13.33;37.21
64460;BME280;50828;53.756;21.140;2023-04-30T14:17:30;100170.69;;;13.32;37.62
64460;BME280;50828;53.756;21.140;2023-04-30T14:22:37;100168.40;;;13.32;37.86
64460;BME280;50828;53.756;21.140;2023-04-30T14:27:45;100166.88;;;13.27;37.61
64460;BME280;50828;53.756;21.140;2023-04-30T14:32:53;100169.70;;;13.23;37.84
64460;BME280;50828;53.756;21.140;2023-04-30T14:38:01;100164.50;;;13.21;38.08
64460;BME280;50828;53.756;21.140;2023-04-30T14:43:08;100163.84;;;13.20;38.46
64460;BME280;50828;53.756;21.140;2023-04-30T14:48:16;100171.05;;;13.18;38.51
64460;BME280;50828;53.756;21.140;2023-04-30T14:53:24;100173.50;;;13.15;38.86
64460;BME280;50828;53.756;21.140;2023-04-30T14:58:31;100177.66;;;13.09;38.94
64460;BME280;50828;53.756;21.140;2023-04-30T15:03:39;100178.21;;;13.05;39.32
64460;BME280;50828;53.756;21.140;2023-04-30T15:08:46;100183.69;;;13.01;39.70
64460;BME280;50828;53.756;21.140;2023-04-30T15:13:54;100180.73;;;12.97;39.97
64460;BME280;50828;53.756;21.140;2023-04-30T15:19:02;100189.35;;;12.98;40.35
64460;BME280;50828;53.756;21.140;2023-04-30T15:24:10;100191.02;;;12.96;40.20
64460;BME280;50828;53.756;21.140;2023-04-30T15:29:18;100194.39;;;12.92;40.55
64460;BME280;50828;53.756;21.140;2023-04-30T15:34:26;100195.47;;;12.88;40.68
64460;BME280;50828;53.756;21.140;2023-04-30T15:39:33;100200.30;;;12.83;40.58
64460;BME280;50828;53.756;21.140;2023-04-30T15:44:41;100197.40;;;12.77;40.90
64460;BME280;50828;53.756;21.140;2023-04-30T15:49:49;100198.70;;;12.76;41.18
64460;BME280;50828;53.756;21.140;2023-04-30T15:54:56;100200.73;;;12.74;41.08
64460;BME280;50828;53.756;21.140;2023-04-30T16:00:05;100206.71;;;12.71;41.10
64460;BME280;50828;53.756;21.140;2023-04-30T16:05:19;100207.85;;;12.66;41.15
64460;BME280;50828;53.756;21.140;2023-04-30T16:10:26;100202.90;;;12.58;41.17
64460;BME280;50828;53.756;21.140;2023-04-30T16:15:34;100205.68;;;12.52;41.27
64460;BME280;50828;53.756;21.140;2023-04-30T16:20:42;100216.92;;;12.45;40.98
64460;BME280;50828;53.756;21.140;2023-04-30T16:25:52;100211.98;;;12.34;41.03
64460;BME280;50828;53.756;21.140;2023-04-30T16:31:00;100215.20;;;12.29;41.52
64460;BME280;50828;53.756;21.140;2023-04-30T16:36:08;100217.13;;;12.22;41.60
64460;BME280;50828;53.756;21.140;2023-04-30T16:41:16;100214.48;;;12.14;41.36
64460;BME280;50828;53.756;21.140;2023-04-30T16:46:25;100219.43;;;12.06;41.30
64460;BME280;50828;53.756;21.140;2023-04-30T16:51:33;100219.54;;;12.00;41.66
64460;BME280;50828;53.756;21.140;2023-04-30T16:56:40;100223.34;;;11.92;41.72
64460;BME280;50828;53.756;21.140;2023-04-30T17:01:48;100231.94;;;11.85;41.31
64460;BME280;50828;53.756;21.140;2023-04-30T17:06:55;100225.89;;;11.78;41.54
64460;BME280;50828;53.756;21.140;2023-04-30T17:12:04;100229.35;;;11.68;41.31
64460;BME280;50828;53.756;21.140;2023-04-30T17:17:12;100233.80;;;11.54;41.37
64460;BME280;50828;53.756;21.140;2023-04-30T17:22:20;100238.06;;;11.41;41.88
64460;BME280;50828;53.756;21.140;2023-04-30T17:27:27;100244.39;;;11.28;42.56
64460;BME280;50828;53.756;21.140;2023-04-30T17:32:35;100251.95;;;11.16;42.50
64460;BME280;50828;53.756;21.140;2023-04-30T17:37:43;100258.29;;;11.02;42.50
64460;BME280;50828;53.756;21.140;2023-04-30T17:42:51;100265.52;;;10.89;42.55
64460;BME280;50828;53.756;21.140;2023-04-30T17:47:59;100270.83;;;10.75;42.68
64460;BME280;50828;53.756;21.140;2023-04-30T17:53:06;100268.56;;;10.60;42.84
64460;BME280;50828;53.756;21.140;2023-04-30T17:58:13;100274.09;;;10.44;42.97
64460;BME280;50828;53.756;21.140;2023-04-30T18:03:21;100277.55;;;10.31;42.74
64460;BME280;50828;53.756;21.140;2023-04-30T18:08:28;100286.33;;;10.16;43.21
64460;BME280;50828;53.756;21.140;2023-04-30T18:13:36;100297.89;;;10.03;43.35
64460;BME280;50828;53.756;21.140;2023-04-30T18:18:44;100307.33;;;9.89;43.48
64460;BME280;50828;53.756;21.140;2023-04-30T18:23:52;100313.61;;;9.75;43.95
64460;BME280;50828;53.756;21.140;2023-04-30T18:29:00;100318.64;;;9.61;44.08
64460;BME280;50828;53.756;21.140;2023-04-30T18:34:08;100321.91;;;9.47;44.29
64460;BME280;50828;53.756;21.140;2023-04-30T18:39:16;100325.01;;;9.33;44.42
64460;BME280;50828;53.756;21.140;2023-04-30T18:44:29;100328.13;;;9.17;44.69
64460;BME280;50828;53.756;21.140;2023-04-30T18:49:37;100334.84;;;9.05;44.87
64460;BME280;50828;53.756;21.140;2023-04-30T18:54:45;100344.54;;;8.92;45.06
64460;BME280;50828;53.756;21.140;2023-04-30T18:59:52;100344.95;;;8.78;45.47
64460;BME280;50828;53.756;21.140;2023-04-30T19:05:00;100346.29;;;8.67;45.57
64460;BME280;50828;53.756;21.140;2023-04-30T19:10:09;100346.80;;;8.55;45.89
64460;BME280;50828;53.756;21.140;2023-04-30T19:15:17;100347.83;;;8.44;45.94
64460;BME280;50828;53.756;21.140;2023-04-30T19:20:24;100352.00;;;8.31;45.92
64460;BME280;50828;53.756;21.140;2023-04-30T19:25:31;100352.02;;;8.18;46.10
64460;BME280;50828;53.756;21.140;2023-04-30T19:30:39;100360.58;;;8.05;46.39
64460;BME280;50828;53.756;21.140;2023-04-30T19:35:54;100356.38;;;7.91;46.76
64460;BME280;50828;53.756;21.140;2023-04-30T19:41:02;100359.34;;;7.78;47.09
64460;BME280;50828;53.756;21.140;2023-04-30T19:46:11;100364.75;;;7.65;47.31
64460;BME280;50828;53.756;21.140;2023-04-30T19:51:18;100364.57;;;7.50;47.30
64460;BME280;50828;53.756;21.140;2023-04-30T19:56:26;100365.79;;;7.35;47.04
64460;BME280;50828;53.756;21.140;2023-04-30T20:01:33;100365.98;;;7.19;47.09
64460;BME280;50828;53.756;21.140;2023-04-30T20:06:41;100366.89;;;7.00;47.20
64460;BME280;50828;53.756;21.140;2023-04-30T20:11:49;100367.66;;;6.81;47.24
64460;BME280;50828;53.756;21.140;2023-04-30T20:16:57;100367.23;;;6.59;47.29
64460;BME280;50828;53.756;21.140;2023-04-30T20:22:04;100374.97;;;6.38;47.66
64460;BME280;50828;53.756;21.140;2023-04-30T20:27:17;100377.96;;;6.18;48.08
64460;BME280;50828;53.756;21.140;2023-04-30T20:32:25;100380.59;;;5.97;48.25
64460;BME280;50828;53.756;21.140;2023-04-30T20:37:33;100381.61;;;5.77;48.43
64460;BME280;50828;53.756;21.140;2023-04-30T20:42:40;100379.11;;;5.58;48.67
64460;BME280;50828;53.756;21.140;2023-04-30T20:47:47;100372.59;;;5.37;49.01
64460;BME280;50828;53.756;21.140;2023-04-30T20:52:55;100376.68;;;5.21;49.01
64460;BME280;50828;53.756;21.140;2023-04-30T20:58:02;100374.84;;;5.01;49.09
64460;BME280;50828;53.756;21.140;2023-04-30T21:03:10;100379.98;;;4.83;49.56
64460;BME280;50828;53.756;21.140;2023-04-30T21:08:17;100383.66;;;4.67;50.12
64460;BME280;50828;53.756;21.140;2023-04-30T21:13:25;100383.83;;;4.51;50.71
64460;BME280;50828;53.756;21.140;2023-04-30T21:18:33;100387.13;;;4.37;51.03
64460;BME280;50828;53.756;21.140;2023-04-30T21:23:42;100394.74;;;4.24;51.11
64460;BME280;50828;53.756;21.140;2023-04-30T21:28:52;100397.85;;;4.08;51.37
64460;BME280;50828;53.756;21.140;2023-04-30T21:34:00;100401.29;;;3.95;51.44
64460;BME280;50828;53.756;21.140;2023-04-30T21:39:08;100405.92;;;3.81;52.13
64460;BME280;50828;53.756;21.140;2023-04-30T21:44:15;100409.15;;;3.68;52.66
64460;BME280;50828;53.756;21.140;2023-04-30T21:49:24;100407.34;;;3.56;52.96
64460;BME280;50828;53.756;21.140;2023-04-30T21:54:32;100407.92;;;3.45;53.01
64460;BME280;50828;53.756;21.140;2023-04-30T21:59:39;100406.58;;;3.35;52.78
64460;BME280;50828;53.756;21.140;2023-04-30T22:04:47;100412.92;;;3.24;52.45
64460;BME280;50828;53.756;21.140;2023-04-30T22:09:54;100411.42;;;3.11;52.71
64460;BME280;50828;53.756;21.140;2023-04-30T22:15:03;100421.23;;;2.99;52.95
64460;BME280;50828;53.756;21.140;2023-04-30T22:20:12;100421.27;;;2.87;53.43
64460;BME280;50828;53.756;21.140;2023-04-30T22:25:20;100420.61;;;2.75;53.66
64460;BME280;50828;53.756;21.140;2023-04-30T22:30:27;100429.70;;;2.66;53.88
64460;BME280;50828;53.756;21.140;2023-04-30T22:35:36;100435.80;;;2.56;54.06
64460;BME280;50828;53.756;21.140;2023-04-30T22:40:44;100434.60;;;2.47;54.47
64460;BME280;50828;53.756;21.140;2023-04-30T22:45:51;100436.88;;;2.38;54.37
64460;BME280;50828;53.756;21.140;2023-04-30T22:50:59;100437.23;;;2.30;54.39
64460;BME280;50828;53.756;21.140;2023-04-30T22:56:07;100436.02;;;2.19;54.60
64460;BME280;50828;53.756;21.140;2023-04-30T23:01:14;100444.02;;;2.11;55.02
64460;BME280;50828;53.756;21.140;2023-04-30T23:06:22;100441.23;;;2.02;55.32
64460;BME280;50828;53.756;21.140;2023-04-30T23:11:29;100443.85;;;1.94;55.05
64460;BME280;50828;53.756;21.140;2023-04-30T23:16:37;100437.94;;;1.87;54.98
64460;BME280;50828;53.756;21.140;2023-04-30T23:21:47;100433.95;;;1.80;55.15
64460;BME280;50828;53.756;21.140;2023-04-30T23:26:54;100432.20;;;1.72;54.93
64460;BME280;50828;53.756;21.140;2023-04-30T23:32:02;100430.27;;;1.63;54.96
64460;BME280;50828;53.756;21.140;2023-04-30T23:37:10;100426.78;;;1.54;55.20
64460;BME280;50828;53.756;21.140;2023-04-30T23:42:18;100423.65;;;1.46;55.67
64460;BME280;50828;53.756;21.140;2023-04-30T23:47:25;100410.27;;;1.34;55.73
64460;BME280;50828;53.756;21.140;2023-04-30T23:52:33;100410.44;;;1.31;55.99
64460;BME280;50828;53.756;21.140;2023-04-30T23:57:41;100409.54;;;1.24;56.15
